sensor_id;sensor_type;location;lat;lon;timestamp;temperature;humidity
64961;SHT31;51487;52.266;10.542;2023-09-19T00:00:37;16.50;95.92
64961;SHT31;51487;52.266;10.542;2023-09-19T00:03:03;16.43;96.10
64961;SHT31;51487;52.266;10.542;2023-09-19T00:05:33;16.48;96.23
64961;SHT31;51487;52.266;10.542;2023-09-19T00:08:01;16.50;96.21
64961;SHT31;51487;52.266;10.542;2023-09-19T00:10:31;16.46;95.40
64961;SHT31;51487;52.266;10.542;2023-09-19T00:12:58;16.40;95.65
64961;SHT31;51487;52.266;10.542;2023-09-19T00:15:35;16.38;96.01
64961;SHT31;51487;52.266;10.542;2023-09-19T00:18:03;16.36;96.06
64961;SHT31;51487;52.266;10.542;2023-09-19T00:20:31;16.38;96.56
64961;SHT31;51487;52.266;10.542;2023-09-19T00:22:57;16.36;95.97
64961;SHT31;51487;52.266;10.542;2023-09-19T00:25:28;16.39;95.72
64961;SHT31;51487;52.266;10.542;2023-09-19T00:27:54;16.42;95.75
64961;SHT31;51487;52.266;10.542;2023-09-19T00:30:20;16.40;96.02
64961;SHT31;51487;52.266;10.542;2023-09-19T00:32:48;16.39;96.11
64961;SHT31;51487;52.266;10.542;2023-09-19T00:35:14;16.40;95.76
64961;SHT31;51487;52.266;10.542;2023-09-19T00:37:43;16.34;95.56
64961;SHT31;51487;52.266;10.542;2023-09-19T00:40:10;16.33;95.41
64961;SHT31;51487;52.266;10.542;2023-09-19T00:42:41;16.28;96.16
64961;SHT31;51487;52.266;10.542;2023-09-19T00:45:12;16.32;95.95
64961;SHT31;51487;52.266;10.542;2023-09-19T00:47:40;16.39;96.28
64961;SHT31;51487;52.266;10.542;2023-09-19T00:50:08;16.32;95.69
64961;SHT31;51487;52.266;10.542;2023-09-19T00:52:36;16.33;95.66
64961;SHT31;51487;52.266;10.542;2023-09-19T00:55:09;16.38;95.36
64961;SHT31;51487;52.266;10.542;2023-09-19T00:57:37;16.36;95.09
64961;SHT31;51487;52.266;10.542;2023-09-19T01:00:08;16.36;94.67
64961;SHT31;51487;52.266;10.542;2023-09-19T01:02:42;16.28;95.27
64961;SHT31;51487;52.266;10.542;2023-09-19T01:05:08;16.38;94.68
64961;SHT31;51487;52.266;10.542;2023-09-19T01:07:35;16.39;94.82
64961;SHT31;51487;52.266;10.542;2023-09-19T01:10:07;16.38;95.02
64961;SHT31;51487;52.266;10.542;2023-09-19T01:15:22;16.32;95.08
64961;SHT31;51487;52.266;10.542;2023-09-19T01:21:26;16.33;94.45
64961;SHT31;51487;52.266;10.542;2023-09-19T01:30:22;16.36;94.27
64961;SHT31;51487;52.266;10.542;2023-09-19T01:32:51;16.33;94.43
64961;SHT31;51487;52.266;10.542;2023-09-19T01:35:18;16.36;93.67
64961;SHT31;51487;52.266;10.542;2023-09-19T01:37:44;16.39;94.72
64961;SHT31;51487;52.266;10.542;2023-09-19T01:40:14;16.34;94.15
64961;SHT31;51487;52.266;10.542;2023-09-19T01:42:59;16.33;94.38
64961;SHT31;51487;52.266;10.542;2023-09-19T01:46:00;16.28;94.53
64961;SHT31;51487;52.266;10.542;2023-09-19T01:48:38;16.26;94.52
64961;SHT31;51487;52.266;10.542;2023-09-19T01:51:10;16.26;94.51
64961;SHT31;51487;52.266;10.542;2023-09-19T01:53:55;16.28;94.21
64961;SHT31;51487;52.266;10.542;2023-09-19T01:56:48;16.23;94.36
64961;SHT31;51487;52.266;10.542;2023-09-19T01:59:25;16.21;94.09
64961;SHT31;51487;52.266;10.542;2023-09-19T02:01:55;16.23;94.53
64961;SHT31;51487;52.266;10.542;2023-09-19T02:04:21;16.23;94.34
64961;SHT31;51487;52.266;10.542;2023-09-19T02:06:47;16.21;94.20
64961;SHT31;51487;52.266;10.542;2023-09-19T02:09:14;16.15;94.23
64961;SHT31;51487;52.266;10.542;2023-09-19T02:11:42;16.15;94.26
64961;SHT31;51487;52.266;10.542;2023-09-19T02:14:08;16.25;94.25
64961;SHT31;51487;52.266;10.542;2023-09-19T02:16:34;16.26;94.32
64961;SHT31;51487;52.266;10.542;2023-09-19T02:19:00;16.23;93.92
64961;SHT31;51487;52.266;10.542;2023-09-19T02:21:26;16.26;94.23
64961;SHT31;51487;52.266;10.542;2023-09-19T02:23:55;16.21;94.16
64961;SHT31;51487;52.266;10.542;2023-09-19T02:26:21;16.22;94.09
64961;SHT31;51487;52.266;10.542;2023-09-19T02:28:50;16.18;94.08
64961;SHT31;51487;52.266;10.542;2023-09-19T02:31:15;16.16;94.41
64961;SHT31;51487;52.266;10.542;2023-09-19T02:33:42;16.12;94.27
64961;SHT31;51487;52.266;10.542;2023-09-19T02:36:08;16.16;94.09
64961;SHT31;51487;52.266;10.542;2023-09-19T02:38:34;16.08;94.43
64961;SHT31;51487;52.266;10.542;2023-09-19T02:41:00;16.09;94.35
64961;SHT31;51487;52.266;10.542;2023-09-19T02:43:27;16.09;94.68
64961;SHT31;51487;52.266;10.542;2023-09-19T02:45:52;16.05;94.38
64961;SHT31;51487;52.266;10.542;2023-09-19T02:48:22;16.02;94.82
64961;SHT31;51487;52.266;10.542;2023-09-19T02:50:51;16.01;94.35
64961;SHT31;51487;52.266;10.542;2023-09-19T02:53:16;15.94;94.34
64961;SHT31;51487;52.266;10.542;2023-09-19T02:55:42;15.92;94.48
64961;SHT31;51487;52.266;10.542;2023-09-19T02:58:08;15.87;94.93
64961;SHT31;51487;52.266;10.542;2023-09-19T03:00:36;15.87;95.08
64961;SHT31;51487;52.266;10.542;2023-09-19T03:03:02;15.88;94.88
64961;SHT31;51487;52.266;10.542;2023-09-19T03:05:28;15.84;94.71
64961;SHT31;51487;52.266;10.542;2023-09-19T03:07:57;15.81;95.04
64961;SHT31;51487;52.266;10.542;2023-09-19T03:10:26;15.82;94.91
64961;SHT31;51487;52.266;10.542;2023-09-19T03:12:53;15.85;95.05
64961;SHT31;51487;52.266;10.542;2023-09-19T03:15:19;15.80;94.59
64961;SHT31;51487;52.266;10.542;2023-09-19T03:17:46;15.77;94.16
64961;SHT31;51487;52.266;10.542;2023-09-19T03:20:13;15.78;94.50
64961;SHT31;51487;52.266;10.542;2023-09-19T03:22:40;15.77;94.73
64961;SHT31;51487;52.266;10.542;2023-09-19T03:25:07;15.68;94.60
64961;SHT31;51487;52.266;10.542;2023-09-19T03:27:37;15.67;94.63
64961;SHT31;51487;52.266;10.542;2023-09-19T03:30:04;15.63;94.66
64961;SHT31;51487;52.266;10.542;2023-09-19T03:32:37;15.68;94.74
64961;SHT31;51487;52.266;10.542;2023-09-19T03:35:08;15.61;94.83
64961;SHT31;51487;52.266;10.542;2023-09-19T03:37:41;15.55;95.30
64961;SHT31;51487;52.266;10.542;2023-09-19T03:40:08;15.57;94.90
64961;SHT31;51487;52.266;10.542;2023-09-19T03:42:39;15.55;94.82
64961;SHT31;51487;52.266;10.542;2023-09-19T03:45:07;15.53;94.62
64961;SHT31;51487;52.266;10.542;2023-09-19T03:47:34;15.58;94.92
64961;SHT31;51487;52.266;10.542;2023-09-19T03:50:00;15.63;94.86
64961;SHT31;51487;52.266;10.542;2023-09-19T03:52:25;15.64;94.31
64961;SHT31;51487;52.266;10.542;2023-09-19T03:54:52;15.64;94.34
64961;SHT31;51487;52.266;10.542;2023-09-19T03:57:17;15.65;94.26
64961;SHT31;51487;52.266;10.542;2023-09-19T03:59:46;15.65;93.99
64961;SHT31;51487;52.266;10.542;2023-09-19T04:02:13;15.61;94.14
64961;SHT31;51487;52.266;10.542;2023-09-19T04:04:51;15.57;94.13
64961;SHT31;51487;52.266;10.542;2023-09-19T04:07:18;15.58;94.82
64961;SHT31;51487;52.266;10.542;2023-09-19T04:09:44;15.51;94.55
64961;SHT31;51487;52.266;10.542;2023-09-19T04:12:11;15.55;94.29
64961;SHT31;51487;52.266;10.542;2023-09-19T04:14:37;15.51;94.32
64961;SHT31;51487;52.266;10.542;2023-09-19T04:17:04;15.46;94.45
64961;SHT31;51487;52.266;10.542;2023-09-19T04:19:30;15.46;94.56
64961;SHT31;51487;52.266;10.542;2023-09-19T04:21:56;15.43;94.82
64961;SHT31;51487;52.266;10.542;2023-09-19T04:24:21;15.42;94.32
64961;SHT31;51487;52.266;10.542;2023-09-19T04:26:47;15.43;94.54
64961;SHT31;51487;52.266;10.542;2023-09-19T04:29:13;15.43;94.28
64961;SHT31;51487;52.266;10.542;2023-09-19T04:31:39;15.43;93.42
64961;SHT31;51487;52.266;10.542;2023-09-19T04:34:06;15.42;93.83
64961;SHT31;51487;52.266;10.542;2023-09-19T04:36:31;15.51;92.67
64961;SHT31;51487;52.266;10.542;2023-09-19T04:38:57;15.51;92.62
64961;SHT31;51487;52.266;10.542;2023-09-19T04:41:23;15.55;91.97
64961;SHT31;51487;52.266;10.542;2023-09-19T04:43:48;15.58;91.31
64961;SHT31;51487;52.266;10.542;2023-09-19T04:46:16;15.64;90.26
64961;SHT31;51487;52.266;10.542;2023-09-19T04:48:43;15.67;89.59
64961;SHT31;51487;52.266;10.542;2023-09-19T04:51:08;15.72;89.03
64961;SHT31;51487;52.266;10.542;2023-09-19T04:53:35;15.71;89.35
64961;SHT31;51487;52.266;10.542;2023-09-19T04:56:01;15.75;89.02
64961;SHT31;51487;52.266;10.542;2023-09-19T04:58:29;15.78;88.75
64961;SHT31;51487;52.266;10.542;2023-09-19T05:00:55;15.82;88.50
64961;SHT31;51487;52.266;10.542;2023-09-19T05:03:21;15.81;88.85
64961;SHT31;51487;52.266;10.542;2023-09-19T05:05:47;15.80;89.05
64961;SHT31;51487;52.266;10.542;2023-09-19T05:08:14;15.84;89.17
64961;SHT31;51487;52.266;10.542;2023-09-19T05:10:40;15.82;89.20
64961;SHT31;51487;52.266;10.542;2023-09-19T05:13:06;15.87;89.34
64961;SHT31;51487;52.266;10.542;2023-09-19T05:15:33;15.92;89.87
64961;SHT31;51487;52.266;10.542;2023-09-19T05:18:01;15.94;89.64
64961;SHT31;51487;52.266;10.542;2023-09-19T05:20:26;16.04;90.10
64961;SHT31;51487;52.266;10.542;2023-09-19T05:23:04;16.05;89.28
64961;SHT31;51487;52.266;10.542;2023-09-19T05:25:33;16.01;89.30
64961;SHT31;51487;52.266;10.542;2023-09-19T05:28:02;16.04;90.08
64961;SHT31;51487;52.266;10.542;2023-09-19T05:30:32;15.98;88.91
64961;SHT31;51487;52.266;10.542;2023-09-19T05:32:58;15.92;89.15
64961;SHT31;51487;52.266;10.542;2023-09-19T05:35:24;15.91;89.21
64961;SHT31;51487;52.266;10.542;2023-09-19T05:37:52;15.88;89.48
64961;SHT31;51487;52.266;10.542;2023-09-19T05:40:18;15.84;89.41
64961;SHT31;51487;52.266;10.542;2023-09-19T05:42:45;15.80;89.53
64961;SHT31;51487;52.266;10.542;2023-09-19T05:45:11;15.77;89.58
64961;SHT31;51487;52.266;10.542;2023-09-19T05:47:41;15.72;89.06
64961;SHT31;51487;52.266;10.542;2023-09-19T05:50:09;15.70;89.05
64961;SHT31;51487;52.266;10.542;2023-09-19T05:52:36;15.70;89.06
64961;SHT31;51487;52.266;10.542;2023-09-19T05:55:06;15.71;88.70
64961;SHT31;51487;52.266;10.542;2023-09-19T05:57:36;15.70;88.95
64961;SHT31;51487;52.266;10.542;2023-09-19T06:00:06;15.61;88.75
64961;SHT31;51487;52.266;10.542;2023-09-19T06:02:36;15.68;88.66
64961;SHT31;51487;52.266;10.542;2023-09-19T06:05:04;15.65;88.96
64961;SHT31;51487;52.266;10.542;2023-09-19T06:07:32;15.61;88.57
64961;SHT31;51487;52.266;10.542;2023-09-19T06:10:04;15.64;88.10
64961;SHT31;51487;52.266;10.542;2023-09-19T06:12:33;15.67;88.18
64961;SHT31;51487;52.266;10.542;2023-09-19T06:15:04;15.63;88.06
64961;SHT31;51487;52.266;10.542;2023-09-19T06:17:34;15.54;88.18
64961;SHT31;51487;52.266;10.542;2023-09-19T06:20:07;15.58;88.16
64961;SHT31;51487;52.266;10.542;2023-09-19T06:22:44;15.57;88.02
64961;SHT31;51487;52.266;10.542;2023-09-19T06:25:13;15.60;87.38
64961;SHT31;51487;52.266;10.542;2023-09-19T06:27:48;15.64;86.85
64961;SHT31;51487;52.266;10.542;2023-09-19T06:30:14;15.60;85.68
64961;SHT31;51487;52.266;10.542;2023-09-19T06:32:41;15.60;86.07
64961;SHT31;51487;52.266;10.542;2023-09-19T06:35:11;15.64;85.71
64961;SHT31;51487;52.266;10.542;2023-09-19T06:37:38;15.68;84.71
64961;SHT31;51487;52.266;10.542;2023-09-19T06:40:14;15.81;84.33
64961;SHT31;51487;52.266;10.542;2023-09-19T06:42:58;15.82;83.16
64961;SHT31;51487;52.266;10.542;2023-09-19T06:45:23;15.78;83.70
64961;SHT31;51487;52.266;10.542;2023-09-19T06:47:52;15.84;83.95
64961;SHT31;51487;52.266;10.542;2023-09-19T06:50:22;15.87;82.75
64961;SHT31;51487;52.266;10.542;2023-09-19T06:52:53;15.90;83.28
64961;SHT31;51487;52.266;10.542;2023-09-19T06:55:20;15.87;84.10
64961;SHT31;51487;52.266;10.542;2023-09-19T06:57:47;15.85;84.15
64961;SHT31;51487;52.266;10.542;2023-09-19T07:00:14;15.92;84.62
64961;SHT31;51487;52.266;10.542;2023-09-19T07:03:07;15.95;84.12
64961;SHT31;51487;52.266;10.542;2023-09-19T07:05:37;15.98;83.80
64961;SHT31;51487;52.266;10.542;2023-09-19T07:08:06;16.00;83.89
64961;SHT31;51487;52.266;10.542;2023-09-19T07:10:32;15.97;84.00
64961;SHT31;51487;52.266;10.542;2023-09-19T07:13:06;15.98;84.34
64961;SHT31;51487;52.266;10.542;2023-09-19T07:15:38;16.01;83.95
64961;SHT31;51487;52.266;10.542;2023-09-19T07:18:22;16.11;84.35
64961;SHT31;51487;52.266;10.542;2023-09-19T07:20:47;16.11;83.70
64961;SHT31;51487;52.266;10.542;2023-09-19T07:23:20;16.16;83.06
64961;SHT31;51487;52.266;10.542;2023-09-19T07:25:46;16.19;82.33
64961;SHT31;51487;52.266;10.542;2023-09-19T07:28:12;16.23;82.11
64961;SHT31;51487;52.266;10.542;2023-09-19T07:30:38;16.38;82.13
64961;SHT31;51487;52.266;10.542;2023-09-19T07:33:06;16.33;81.80
64961;SHT31;51487;52.266;10.542;2023-09-19T07:35:32;16.45;80.77
64961;SHT31;51487;52.266;10.542;2023-09-19T07:37:59;16.43;81.19
64961;SHT31;51487;52.266;10.542;2023-09-19T07:40:27;16.43;79.78
64961;SHT31;51487;52.266;10.542;2023-09-19T07:42:57;16.55;80.03
64961;SHT31;51487;52.266;10.542;2023-09-19T07:45:29;16.59;81.39
64961;SHT31;51487;52.266;10.542;2023-09-19T07:47:58;16.63;80.62
64961;SHT31;51487;52.266;10.542;2023-09-19T07:50:23;16.64;79.92
64961;SHT31;51487;52.266;10.542;2023-09-19T07:52:50;16.70;79.50
64961;SHT31;51487;52.266;10.542;2023-09-19T07:55:19;16.80;78.63
64961;SHT31;51487;52.266;10.542;2023-09-19T07:57:48;16.81;77.75
64961;SHT31;51487;52.266;10.542;2023-09-19T08:00:15;16.87;78.19
64961;SHT31;51487;52.266;10.542;2023-09-19T08:02:42;16.94;78.76
64961;SHT31;51487;52.266;10.542;2023-09-19T08:05:10;16.87;77.31
64961;SHT31;51487;52.266;10.542;2023-09-19T08:07:41;16.95;76.29
64961;SHT31;51487;52.266;10.542;2023-09-19T08:10:07;16.94;77.27
64961;SHT31;51487;52.266;10.542;2023-09-19T08:12:36;16.84;77.55
64961;SHT31;51487;52.266;10.542;2023-09-19T08:15:03;16.90;78.67
64961;SHT31;51487;52.266;10.542;2023-09-19T08:17:33;17.01;78.10
64961;SHT31;51487;52.266;10.542;2023-09-19T08:19:58;17.06;75.54
64961;SHT31;51487;52.266;10.542;2023-09-19T08:22:25;17.07;76.25
64961;SHT31;51487;52.266;10.542;2023-09-19T08:24:52;17.10;76.23
64961;SHT31;51487;52.266;10.542;2023-09-19T08:27:17;17.12;76.13
64961;SHT31;51487;52.266;10.542;2023-09-19T08:29:44;17.19;76.09
64961;SHT31;51487;52.266;10.542;2023-09-19T08:32:10;17.24;75.54
64961;SHT31;51487;52.266;10.542;2023-09-19T08:34:36;17.27;75.73
64961;SHT31;51487;52.266;10.542;2023-09-19T08:37:04;17.17;76.00
64961;SHT31;51487;52.266;10.542;2023-09-19T08:39:30;17.25;75.97
64961;SHT31;51487;52.266;10.542;2023-09-19T08:42:00;17.34;74.78
64961;SHT31;51487;52.266;10.542;2023-09-19T08:44:27;17.27;75.05
64961;SHT31;51487;52.266;10.542;2023-09-19T08:47:13;17.29;75.17
64961;SHT31;51487;52.266;10.542;2023-09-19T08:50:01;17.25;75.48
64961;SHT31;51487;52.266;10.542;2023-09-19T08:52:37;17.35;76.21
64961;SHT31;51487;52.266;10.542;2023-09-19T08:55:07;17.34;75.89
64961;SHT31;51487;52.266;10.542;2023-09-19T08:57:36;17.48;75.93
64961;SHT31;51487;52.266;10.542;2023-09-19T09:00:07;17.52;75.82
64961;SHT31;51487;52.266;10.542;2023-09-19T09:02:40;17.50;74.65
64961;SHT31;51487;52.266;10.542;2023-09-19T09:05:09;17.56;74.21
64961;SHT31;51487;52.266;10.542;2023-09-19T09:07:37;17.59;74.89
64961;SHT31;51487;52.266;10.542;2023-09-19T09:10:04;17.68;73.94
64961;SHT31;51487;52.266;10.542;2023-09-19T09:12:30;17.80;73.81
64961;SHT31;51487;52.266;10.542;2023-09-19T09:14:57;17.85;73.75
64961;SHT31;51487;52.266;10.542;2023-09-19T09:17:23;17.83;73.48
64961;SHT31;51487;52.266;10.542;2023-09-19T09:19:52;17.94;73.92
64961;SHT31;51487;52.266;10.542;2023-09-19T09:22:18;17.83;72.18
64961;SHT31;51487;52.266;10.542;2023-09-19T09:24:59;17.97;72.06
64961;SHT31;51487;52.266;10.542;2023-09-19T09:27:30;18.06;72.82
64961;SHT31;51487;52.266;10.542;2023-09-19T09:29:58;18.11;73.52
64961;SHT31;51487;52.266;10.542;2023-09-19T09:32:29;18.23;73.17
64961;SHT31;51487;52.266;10.542;2023-09-19T09:35:00;18.34;71.69
64961;SHT31;51487;52.266;10.542;2023-09-19T09:37:27;18.40;71.37
64961;SHT31;51487;52.266;10.542;2023-09-19T09:39:59;18.49;71.52
64961;SHT31;51487;52.266;10.542;2023-09-19T09:42:44;18.45;71.29
64961;SHT31;51487;52.266;10.542;2023-09-19T09:45:21;18.57;71.21
64961;SHT31;51487;52.266;10.542;2023-09-19T09:47:54;18.51;70.80
64961;SHT31;51487;52.266;10.542;2023-09-19T09:50:33;18.47;70.55
64961;SHT31;51487;52.266;10.542;2023-09-19T09:53:29;18.45;70.51
64961;SHT31;51487;52.266;10.542;2023-09-19T09:58:28;18.51;70.10
64961;SHT31;51487;52.266;10.542;2023-09-19T10:01:01;18.45;70.00
64961;SHT31;51487;52.266;10.542;2023-09-19T10:03:40;18.40;69.26
64961;SHT31;51487;52.266;10.542;2023-09-19T10:06:14;18.45;69.99
64961;SHT31;51487;52.266;10.542;2023-09-19T10:09:07;18.37;70.20
64961;SHT31;51487;52.266;10.542;2023-09-19T10:12:05;18.43;69.90
64961;SHT31;51487;52.266;10.542;2023-09-19T10:14:37;18.37;70.32
64961;SHT31;51487;52.266;10.542;2023-09-19T10:17:05;18.47;70.08
64961;SHT31;51487;52.266;10.542;2023-09-19T10:19:46;18.58;69.96
64961;SHT31;51487;52.266;10.542;2023-09-19T10:22:16;18.69;69.21
64961;SHT31;51487;52.266;10.542;2023-09-19T10:24:47;18.72;69.32
64961;SHT31;51487;52.266;10.542;2023-09-19T10:27:15;18.81;68.39
64961;SHT31;51487;52.266;10.542;2023-09-19T10:29:44;18.85;67.94
64961;SHT31;51487;52.266;10.542;2023-09-19T10:32:15;18.72;68.73
64961;SHT31;51487;52.266;10.542;2023-09-19T10:34:47;18.68;68.85
64961;SHT31;51487;52.266;10.542;2023-09-19T10:37:16;18.72;69.63
64961;SHT31;51487;52.266;10.542;2023-09-19T10:39:46;18.84;70.26
64961;SHT31;51487;52.266;10.542;2023-09-19T10:42:19;18.82;69.26
64961;SHT31;51487;52.266;10.542;2023-09-19T10:44:46;18.85;69.06
64961;SHT31;51487;52.266;10.542;2023-09-19T10:47:13;18.79;68.67
64961;SHT31;51487;52.266;10.542;2023-09-19T10:49:46;18.69;69.75
64961;SHT31;51487;52.266;10.542;2023-09-19T10:52:16;18.85;69.35
64961;SHT31;51487;52.266;10.542;2023-09-19T10:54:50;19.00;68.97
64961;SHT31;51487;52.266;10.542;2023-09-19T10:57:25;18.98;68.98
64961;SHT31;51487;52.266;10.542;2023-09-19T11:00:07;19.22;68.76
64961;SHT31;51487;52.266;10.542;2023-09-19T11:03:17;19.15;68.88
64961;SHT31;51487;52.266;10.542;2023-09-19T11:06:13;19.16;68.15
64961;SHT31;51487;52.266;10.542;2023-09-19T11:11:49;19.50;67.42
64961;SHT31;51487;52.266;10.542;2023-09-19T11:25:45;19.51;69.43
64961;SHT31;51487;52.266;10.542;2023-09-19T11:28:29;19.49;67.68
64961;SHT31;51487;52.266;10.542;2023-09-19T11:30:56;19.65;67.83
64961;SHT31;51487;52.266;10.542;2023-09-19T11:33:33;19.70;66.67
64961;SHT31;51487;52.266;10.542;2023-09-19T11:36:15;19.63;66.86
64961;SHT31;51487;52.266;10.542;2023-09-19T11:46:30;19.64;66.39
64961;SHT31;51487;52.266;10.542;2023-09-19T11:49:06;19.77;66.47
64961;SHT31;51487;52.266;10.542;2023-09-19T11:51:42;19.78;65.43
64961;SHT31;51487;52.266;10.542;2023-09-19T11:54:14;19.78;66.33
64961;SHT31;51487;52.266;10.542;2023-09-19T11:56:44;19.81;65.01
64961;SHT31;51487;52.266;10.542;2023-09-19T11:59:11;19.65;65.72
64961;SHT31;51487;52.266;10.542;2023-09-19T12:01:52;19.63;65.19
64961;SHT31;51487;52.266;10.542;2023-09-19T12:07:01;19.73;65.23
64961;SHT31;51487;52.266;10.542;2023-09-19T12:09:27;19.67;65.54
64961;SHT31;51487;52.266;10.542;2023-09-19T12:11:53;19.79;66.96
64961;SHT31;51487;52.266;10.542;2023-09-19T12:14:26;19.86;65.87
64961;SHT31;51487;52.266;10.542;2023-09-19T12:16:57;19.85;65.54
64961;SHT31;51487;52.266;10.542;2023-09-19T12:19:24;19.79;64.77
64961;SHT31;51487;52.266;10.542;2023-09-19T12:21:56;19.74;66.07
64961;SHT31;51487;52.266;10.542;2023-09-19T12:24:25;19.77;65.18
64961;SHT31;51487;52.266;10.542;2023-09-19T12:26:52;19.85;65.14
64961;SHT31;51487;52.266;10.542;2023-09-19T12:29:21;19.84;65.68
64961;SHT31;51487;52.266;10.542;2023-09-19T12:31:55;19.85;64.97
64961;SHT31;51487;52.266;10.542;2023-09-19T12:34:33;19.94;65.36
64961;SHT31;51487;52.266;10.542;2023-09-19T12:37:14;20.04;64.35
64961;SHT31;51487;52.266;10.542;2023-09-19T12:39:53;20.05;64.80
64961;SHT31;51487;52.266;10.542;2023-09-19T12:42:24;19.98;65.21
64961;SHT31;51487;52.266;10.542;2023-09-19T12:44:53;19.96;64.15
64961;SHT31;51487;52.266;10.542;2023-09-19T12:47:23;20.06;64.44
64961;SHT31;51487;52.266;10.542;2023-09-19T12:50:14;20.11;64.25
64961;SHT31;51487;52.266;10.542;2023-09-19T12:52:49;20.25;63.89
64961;SHT31;51487;52.266;10.542;2023-09-19T12:55:31;20.21;63.67
64961;SHT31;51487;52.266;10.542;2023-09-19T12:58:08;20.21;62.42
64961;SHT31;51487;52.266;10.542;2023-09-19T13:00:42;20.11;63.53
64961;SHT31;51487;52.266;10.542;2023-09-19T13:05:59;20.30;63.27
64961;SHT31;51487;52.266;10.542;2023-09-19T13:08:34;20.22;63.88
64961;SHT31;51487;52.266;10.542;2023-09-19T13:11:18;20.15;63.97
64961;SHT31;51487;52.266;10.542;2023-09-19T13:14:25;20.23;63.79
64961;SHT31;51487;52.266;10.542;2023-09-19T13:17:08;20.36;64.12
64961;SHT31;51487;52.266;10.542;2023-09-19T13:19:47;20.37;63.61
64961;SHT31;51487;52.266;10.542;2023-09-19T13:22:44;20.29;63.74
64961;SHT31;51487;52.266;10.542;2023-09-19T13:25:16;20.23;63.55
64961;SHT31;51487;52.266;10.542;2023-09-19T13:27:47;20.19;63.50
64961;SHT31;51487;52.266;10.542;2023-09-19T13:30:23;20.30;64.16
64961;SHT31;51487;52.266;10.542;2023-09-19T13:33:05;20.34;62.82
64961;SHT31;51487;52.266;10.542;2023-09-19T13:35:35;20.21;63.77
64961;SHT31;51487;52.266;10.542;2023-09-19T13:38:04;20.28;62.89
64961;SHT31;51487;52.266;10.542;2023-09-19T13:40:30;20.36;63.61
64961;SHT31;51487;52.266;10.542;2023-09-19T13:42:56;20.33;63.65
64961;SHT31;51487;52.266;10.542;2023-09-19T13:45:22;20.34;63.79
64961;SHT31;51487;52.266;10.542;2023-09-19T13:47:50;20.28;63.83
64961;SHT31;51487;52.266;10.542;2023-09-19T13:50:16;20.23;63.77
64961;SHT31;51487;52.266;10.542;2023-09-19T13:52:42;20.15;64.26
64961;SHT31;51487;52.266;10.542;2023-09-19T13:55:08;20.21;63.77
64961;SHT31;51487;52.266;10.542;2023-09-19T13:57:34;20.29;63.27
64961;SHT31;51487;52.266;10.542;2023-09-19T13:59:59;20.29;63.20
64961;SHT31;51487;52.266;10.542;2023-09-19T14:02:25;20.36;62.32
64961;SHT31;51487;52.266;10.542;2023-09-19T14:04:53;20.34;62.91
64961;SHT31;51487;52.266;10.542;2023-09-19T14:07:19;20.33;62.94
64961;SHT31;51487;52.266;10.542;2023-09-19T14:09:46;20.32;63.22
64961;SHT31;51487;52.266;10.542;2023-09-19T14:12:12;20.32;62.33
64961;SHT31;51487;52.266;10.542;2023-09-19T14:14:38;20.32;63.31
64961;SHT31;51487;52.266;10.542;2023-09-19T14:17:04;20.40;63.38
64961;SHT31;51487;52.266;10.542;2023-09-19T14:19:30;20.37;62.33
64961;SHT31;51487;52.266;10.542;2023-09-19T14:21:56;20.37;61.25
64961;SHT31;51487;52.266;10.542;2023-09-19T14:24:22;20.30;61.88
64961;SHT31;51487;52.266;10.542;2023-09-19T14:26:49;20.21;62.79
64961;SHT31;51487;52.266;10.542;2023-09-19T14:29:15;20.25;62.32
64961;SHT31;51487;52.266;10.542;2023-09-19T14:31:42;20.28;62.83
64961;SHT31;51487;52.266;10.542;2023-09-19T14:34:08;20.33;62.73
64961;SHT31;51487;52.266;10.542;2023-09-19T14:36:38;20.52;62.48
64961;SHT31;51487;52.266;10.542;2023-09-19T14:39:06;20.47;62.66
64961;SHT31;51487;52.266;10.542;2023-09-19T14:41:33;20.46;62.18
64961;SHT31;51487;52.266;10.542;2023-09-19T14:43:59;20.42;62.03
64961;SHT31;51487;52.266;10.542;2023-09-19T14:46:25;20.42;62.83
64961;SHT31;51487;52.266;10.542;2023-09-19T14:48:53;20.42;63.02
64961;SHT31;51487;52.266;10.542;2023-09-19T14:51:19;20.40;62.85
64961;SHT31;51487;52.266;10.542;2023-09-19T14:53:46;20.39;63.02
64961;SHT31;51487;52.266;10.542;2023-09-19T14:56:13;20.36;62.66
64961;SHT31;51487;52.266;10.542;2023-09-19T14:58:41;20.42;62.08
64961;SHT31;51487;52.266;10.542;2023-09-19T15:01:11;20.34;62.79
64961;SHT31;51487;52.266;10.542;2023-09-19T15:03:38;20.33;61.84
64961;SHT31;51487;52.266;10.542;2023-09-19T15:06:10;20.33;62.40
64961;SHT31;51487;52.266;10.542;2023-09-19T15:08:40;20.39;62.75
64961;SHT31;51487;52.266;10.542;2023-09-19T15:11:11;20.52;62.98
64961;SHT31;51487;52.266;10.542;2023-09-19T15:13:38;20.53;62.12
64961;SHT31;51487;52.266;10.542;2023-09-19T15:16:06;20.57;62.27
64961;SHT31;51487;52.266;10.542;2023-09-19T15:18:36;20.60;62.64
64961;SHT31;51487;52.266;10.542;2023-09-19T15:21:07;20.71;62.49
64961;SHT31;51487;52.266;10.542;2023-09-19T15:23:34;20.59;62.15
64961;SHT31;51487;52.266;10.542;2023-09-19T15:26:01;20.42;62.67
64961;SHT31;51487;52.266;10.542;2023-09-19T15:28:27;20.36;62.64
64961;SHT31;51487;52.266;10.542;2023-09-19T15:31:08;20.43;62.43
64961;SHT31;51487;52.266;10.542;2023-09-19T15:33:35;20.50;62.53
64961;SHT31;51487;52.266;10.542;2023-09-19T15:36:11;20.49;62.50
64961;SHT31;51487;52.266;10.542;2023-09-19T15:39:05;20.70;62.96
64961;SHT31;51487;52.266;10.542;2023-09-19T15:41:41;20.62;62.23
64961;SHT31;51487;52.266;10.542;2023-09-19T15:44:18;20.69;62.58
64961;SHT31;51487;52.266;10.542;2023-09-19T15:46:45;20.60;62.84
64961;SHT31;51487;52.266;10.542;2023-09-19T15:49:12;20.62;62.89
64961;SHT31;51487;52.266;10.542;2023-09-19T15:51:38;20.59;63.01
64961;SHT31;51487;52.266;10.542;2023-09-19T15:54:12;20.47;63.38
64961;SHT31;51487;52.266;10.542;2023-09-19T15:56:43;20.40;63.51
64961;SHT31;51487;52.266;10.542;2023-09-19T15:59:10;20.39;64.20
64961;SHT31;51487;52.266;10.542;2023-09-19T16:01:39;20.33;63.78
64961;SHT31;51487;52.266;10.542;2023-09-19T16:04:09;20.37;64.10
64961;SHT31;51487;52.266;10.542;2023-09-19T16:06:36;20.22;64.00
64961;SHT31;51487;52.266;10.542;2023-09-19T16:09:04;20.26;64.41
64961;SHT31;51487;52.266;10.542;2023-09-19T16:11:34;20.19;64.79
64961;SHT31;51487;52.266;10.542;2023-09-19T16:14:01;20.16;64.98
64961;SHT31;51487;52.266;10.542;2023-09-19T16:16:28;20.04;64.83